Keezletown, Virginia
Current Conditions -  °F | °C
As of 3:55 AM on Thursday 23 Oct 2014 (Local Time) from KVBW Reporting Station
Clear Clear  
Wind Chill: 44°   Ceiling: Unl
Heat Index: 46°   Visibility: 10mi
Dew Point: 38°   Wind: 5mph
Humidity: 73%   Direction: 300°WNW
Pressure: 29.99"   Gusts: NA
Location:  38.41°N, 78.8°W
Report Text: KVBW 230755Z AUTO 30004KT 10SM CLR 08/03 A2999 RMK AO2 T00790034
Loading
Personal Weather Stations






























Interactive Weather Map
Tropical Storm Tracking
New forecast layout! Learn more

10-Day Weather Forecast

Advertisements
Track Severe Weather on mobile